sensor_id;sensor_type;location;lat;lon;timestamp;pressure;altitude;pressure_sealevel;temperature;humidity
35758;BME280;21879;50.110;18.900;2022-12-18T00:00:08;100114.10;;;-1.58;64.61
35758;BME280;21879;50.110;18.900;2022-12-18T00:10:56;100128.99;;;-1.43;64.69
35758;BME280;21879;50.110;18.900;2022-12-18T00:21:33;100134.96;;;-1.37;64.27
35758;BME280;21879;50.110;18.900;2022-12-18T00:32:01;100150.16;;;-1.60;64.02
35758;BME280;21879;50.110;18.900;2022-12-18T00:42:28;100158.50;;;-1.77;64.32
35758;BME280;21879;50.110;18.900;2022-12-18T00:53:14;100174.39;;;-1.76;64.47
35758;BME280;21879;50.110;18.900;2022-12-18T01:03:42;100188.89;;;-1.71;64.93
35758;BME280;21879;50.110;18.900;2022-12-18T01:14:11;100198.20;;;-1.58;64.84
35758;BME280;21879;50.110;18.900;2022-12-18T01:24:39;100207.14;;;-1.54;64.86
35758;BME280;21879;50.110;18.900;2022-12-18T01:35:08;100202.23;;;-1.29;65.15
35758;BME280;21879;50.110;18.900;2022-12-18T01:45:35;100211.50;;;-1.03;64.79
35758;BME280;21879;50.110;18.900;2022-12-18T01:56:03;100224.31;;;-0.91;64.31
35758;BME280;21879;50.110;18.900;2022-12-18T02:06:36;100234.36;;;-0.88;64.00
35758;BME280;21879;50.110;18.900;2022-12-18T02:17:10;100251.84;;;-0.74;64.03
35758;BME280;21879;50.110;18.900;2022-12-18T02:27:39;100262.21;;;-0.72;63.47
35758;BME280;21879;50.110;18.900;2022-12-18T02:38:07;100267.80;;;-0.75;63.28
35758;BME280;21879;50.110;18.900;2022-12-18T02:48:36;100269.46;;;-0.56;63.64
35758;BME280;21879;50.110;18.900;2022-12-18T02:59:04;100295.79;;;-0.56;63.30
35758;BME280;21879;50.110;18.900;2022-12-18T03:09:36;100307.08;;;-0.58;63.01
35758;BME280;21879;50.110;18.900;2022-12-18T03:20:08;100313.94;;;-0.75;62.51
35758;BME280;21879;50.110;18.900;2022-12-18T03:30:39;100315.61;;;-1.14;62.57
35758;BME280;21879;50.110;18.900;2022-12-18T03:41:14;100318.55;;;-1.46;62.39
35758;BME280;21879;50.110;18.900;2022-12-18T03:51:51;100323.21;;;-1.53;63.27
35758;BME280;21879;50.110;18.900;2022-12-18T04:02:20;100334.55;;;-1.46;63.36
35758;BME280;21879;50.110;18.900;2022-12-18T04:12:51;100344.80;;;-1.33;63.73
35758;BME280;21879;50.110;18.900;2022-12-18T04:23:23;100357.05;;;-1.20;63.78
35758;BME280;21879;50.110;18.900;2022-12-18T04:33:51;100365.77;;;-1.44;63.41
35758;BME280;21879;50.110;18.900;2022-12-18T04:44:19;100379.45;;;-1.30;64.04
35758;BME280;21879;50.110;18.900;2022-12-18T04:54:47;100394.73;;;-1.29;63.52
35758;BME280;21879;50.110;18.900;2022-12-18T05:05:15;100412.20;;;-1.54;63.75
35758;BME280;21879;50.110;18.900;2022-12-18T05:15:42;100423.80;;;-1.56;63.46
35758;BME280;21879;50.110;18.900;2022-12-18T05:26:19;100429.30;;;-1.81;63.46
35758;BME280;21879;50.110;18.900;2022-12-18T05:36:47;100431.98;;;-1.75;64.09
35758;BME280;21879;50.110;18.900;2022-12-18T05:47:15;100438.30;;;-1.58;63.83
35758;BME280;21879;50.110;18.900;2022-12-18T05:57:42;100449.38;;;-1.79;63.45
35758;BME280;21879;50.110;18.900;2022-12-18T06:08:11;100453.12;;;-1.82;63.43
35758;BME280;21879;50.110;18.900;2022-12-18T06:18:38;100459.48;;;-2.11;63.43
35758;BME280;21879;50.110;18.900;2022-12-18T06:29:05;100465.26;;;-2.14;63.75
35758;BME280;21879;50.110;18.900;2022-12-18T06:39:33;100482.95;;;-2.00;63.65
35758;BME280;21879;50.110;18.900;2022-12-18T06:50:01;100494.15;;;-1.75;64.05
35758;BME280;21879;50.110;18.900;2022-12-18T07:00:29;100511.02;;;-1.33;64.27
35758;BME280;21879;50.110;18.900;2022-12-18T07:10:57;100525.77;;;-1.24;63.62
35758;BME280;21879;50.110;18.900;2022-12-18T07:21:25;100539.59;;;-1.03;63.59
35758;BME280;21879;50.110;18.900;2022-12-18T07:31:53;100543.64;;;-0.78;63.16
35758;BME280;21879;50.110;18.900;2022-12-18T07:42:20;100554.48;;;-0.66;62.52
35758;BME280;21879;50.110;18.900;2022-12-18T07:53:00;100557.00;;;-0.64;61.92
35758;BME280;21879;50.110;18.900;2022-12-18T08:03:29;100558.23;;;-0.61;61.71
35758;BME280;21879;50.110;18.900;2022-12-18T08:13:57;100560.44;;;-0.54;61.37
35758;BME280;21879;50.110;18.900;2022-12-18T08:24:24;100567.25;;;-0.64;60.62
35758;BME280;21879;50.110;18.900;2022-12-18T08:34:52;100582.69;;;-0.77;60.55
35758;BME280;21879;50.110;18.900;2022-12-18T08:45:20;100594.20;;;-0.81;60.27
35758;BME280;21879;50.110;18.900;2022-12-18T08:55:48;100605.75;;;-1.07;59.91
35758;BME280;21879;50.110;18.900;2022-12-18T09:06:18;100620.94;;;-1.07;60.31
35758;BME280;21879;50.110;18.900;2022-12-18T09:16:46;100628.40;;;-0.95;60.22
35758;BME280;21879;50.110;18.900;2022-12-18T09:27:13;100636.55;;;-0.65;60.18
35758;BME280;21879;50.110;18.900;2022-12-18T09:37:41;100637.44;;;-0.44;59.74
35758;BME280;21879;50.110;18.900;2022-12-18T09:48:11;100635.54;;;-0.41;59.38
35758;BME280;21879;50.110;18.900;2022-12-18T09:58:47;100639.57;;;-0.37;59.15
35758;BME280;21879;50.110;18.900;2022-12-18T10:09:23;100636.08;;;-0.44;58.71
35758;BME280;21879;50.110;18.900;2022-12-18T10:19:58;100629.19;;;-0.20;59.34
35758;BME280;21879;50.110;18.900;2022-12-18T10:30:27;100623.23;;;-0.28;58.61
35758;BME280;21879;50.110;18.900;2022-12-18T10:40:57;100608.30;;;-0.50;58.85
35758;BME280;21879;50.110;18.900;2022-12-18T10:51:28;100607.95;;;-0.53;58.49
35758;BME280;21879;50.110;18.900;2022-12-18T11:01:57;100593.58;;;-0.74;58.61
35758;BME280;21879;50.110;18.900;2022-12-18T11:12:25;100593.71;;;-0.46;59.06
35758;BME280;21879;50.110;18.900;2022-12-18T11:22:59;100573.35;;;-0.38;58.83
35758;BME280;21879;50.110;18.900;2022-12-18T11:33:28;100574.83;;;-0.39;58.84
35758;BME280;21879;50.110;18.900;2022-12-18T11:44:00;100579.67;;;-0.22;59.15
35758;BME280;21879;50.110;18.900;2022-12-18T11:54:29;100586.52;;;-0.06;58.97
35758;BME280;21879;50.110;18.900;2022-12-18T12:05:09;100601.18;;;-0.28;58.44
35758;BME280;21879;50.110;18.900;2022-12-18T12:15:45;100603.86;;;-0.29;58.78
35758;BME280;21879;50.110;18.900;2022-12-18T12:26:17;100613.12;;;-0.29;58.66
35758;BME280;21879;50.110;18.900;2022-12-18T12:36:59;100615.08;;;-0.25;58.41
35758;BME280;21879;50.110;18.900;2022-12-18T12:47:33;100621.02;;;-0.44;58.24
35758;BME280;21879;50.110;18.900;2022-12-18T12:58:14;100627.36;;;-0.33;58.35
35758;BME280;21879;50.110;18.900;2022-12-18T13:08:56;100629.39;;;-0.17;58.20
35758;BME280;21879;50.110;18.900;2022-12-18T13:19:27;100633.09;;;-0.13;57.98
35758;BME280;21879;50.110;18.900;2022-12-18T13:30:01;100643.83;;;-0.16;57.92
35758;BME280;21879;50.110;18.900;2022-12-18T13:41:01;100650.85;;;-0.16;57.88
35758;BME280;21879;50.110;18.900;2022-12-18T13:51:49;100650.89;;;-0.24;57.95
35758;BME280;21879;50.110;18.900;2022-12-18T14:02:48;100643.66;;;-0.37;57.64
35758;BME280;21879;50.110;18.900;2022-12-18T14:13:48;100647.02;;;-0.57;57.64
35758;BME280;21879;50.110;18.900;2022-12-18T14:24:39;100652.54;;;-0.87;57.66
35758;BME280;21879;50.110;18.900;2022-12-18T14:35:40;100653.41;;;-1.14;57.88
35758;BME280;21879;50.110;18.900;2022-12-18T14:46:32;100649.86;;;-1.36;57.79
35758;BME280;21879;50.110;18.900;2022-12-18T14:57:36;100659.51;;;-1.59;57.45
35758;BME280;21879;50.110;18.900;2022-12-18T15:08:37;100679.54;;;-1.94;57.36
35758;BME280;21879;50.110;18.900;2022-12-18T15:19:44;100686.65;;;-2.63;56.84
35758;BME280;21879;50.110;18.900;2022-12-18T15:30:59;100698.77;;;-3.03;57.18
35758;BME280;21879;50.110;18.900;2022-12-18T15:42:01;100702.02;;;-3.62;57.26
35758;BME280;21879;50.110;18.900;2022-12-18T15:53:11;100711.50;;;-4.24;57.73
35758;BME280;21879;50.110;18.900;2022-12-18T16:04:14;100728.95;;;-4.56;57.83
35758;BME280;21879;50.110;18.900;2022-12-18T16:15:13;100728.45;;;-4.70;58.37
35758;BME280;21879;50.110;18.900;2022-12-18T16:26:00;100738.83;;;-4.86;58.01
35758;BME280;21879;50.110;18.900;2022-12-18T16:37:00;100743.73;;;-4.92;58.16
35758;BME280;21879;50.110;18.900;2022-12-18T16:47:52;100739.62;;;-5.01;57.53
35758;BME280;21879;50.110;18.900;2022-12-18T16:58:20;100737.88;;;-5.09;56.60
35758;BME280;21879;50.110;18.900;2022-12-18T17:08:48;100717.52;;;-5.33;56.48
35758;BME280;21879;50.110;18.900;2022-12-18T17:19:14;100707.23;;;-5.59;55.99
35758;BME280;21879;50.110;18.900;2022-12-18T17:29:43;100699.17;;;-5.75;56.36
35758;BME280;21879;50.110;18.900;2022-12-18T17:40:14;100703.67;;;-5.78;56.80
35758;BME280;21879;50.110;18.900;2022-12-18T17:50:41;100715.92;;;-5.76;57.85
35758;BME280;21879;50.110;18.900;2022-12-18T18:01:09;100719.70;;;-5.59;59.29
35758;BME280;21879;50.110;18.900;2022-12-18T18:11:40;100712.09;;;-5.26;59.96
35758;BME280;21879;50.110;18.900;2022-12-18T18:22:25;100712.48;;;-4.97;59.92
35758;BME280;21879;50.110;18.900;2022-12-18T18:32:53;100715.16;;;-4.81;60.08
35758;BME280;21879;50.110;18.900;2022-12-18T18:43:20;100728.23;;;-4.73;59.97
35758;BME280;21879;50.110;18.900;2022-12-18T18:53:49;100734.35;;;-4.50;59.76
35758;BME280;21879;50.110;18.900;2022-12-18T19:04:17;100754.13;;;-4.53;58.94
35758;BME280;21879;50.110;18.900;2022-12-18T19:14:45;100763.05;;;-4.60;58.95
35758;BME280;21879;50.110;18.900;2022-12-18T19:25:13;100756.17;;;-4.75;58.52
35758;BME280;21879;50.110;18.900;2022-12-18T19:35:40;100771.02;;;-4.89;58.50
35758;BME280;21879;50.110;18.900;2022-12-18T19:46:09;100779.50;;;-4.83;59.34
35758;BME280;21879;50.110;18.900;2022-12-18T19:56:37;100772.44;;;-4.74;59.84
35758;BME280;21879;50.110;18.900;2022-12-18T20:07:05;100755.21;;;-4.79;59.60
35758;BME280;21879;50.110;18.900;2022-12-18T20:17:33;100760.36;;;-4.84;59.63
35758;BME280;21879;50.110;18.900;2022-12-18T20:28:01;100759.14;;;-4.85;59.88
35758;BME280;21879;50.110;18.900;2022-12-18T20:38:30;100752.36;;;-4.72;60.02
35758;BME280;21879;50.110;18.900;2022-12-18T20:48:59;100747.74;;;-4.81;58.81
35758;BME280;21879;50.110;18.900;2022-12-18T20:59:26;100741.90;;;-4.94;58.94
35758;BME280;21879;50.110;18.900;2022-12-18T21:09:54;100732.50;;;-5.05;58.82
35758;BME280;21879;50.110;18.900;2022-12-18T21:20:21;100727.51;;;-5.00;58.75
35758;BME280;21879;50.110;18.900;2022-12-18T21:30:49;100728.30;;;-5.04;58.82
35758;BME280;21879;50.110;18.900;2022-12-18T21:41:16;100729.62;;;-5.15;58.96
35758;BME280;21879;50.110;18.900;2022-12-18T21:52:04;100730.05;;;-5.20;59.07
35758;BME280;21879;50.110;18.900;2022-12-18T22:02:31;100731.63;;;-5.25;59.38
35758;BME280;21879;50.110;18.900;2022-12-18T22:12:59;100728.99;;;-5.24;59.40
35758;BME280;21879;50.110;18.900;2022-12-18T22:23:26;100722.86;;;-5.25;59.40
35758;BME280;21879;50.110;18.900;2022-12-18T22:33:54;100732.17;;;-5.07;59.76
35758;BME280;21879;50.110;18.900;2022-12-18T22:44:21;100731.49;;;-5.11;59.26
35758;BME280;21879;50.110;18.900;2022-12-18T22:54:49;100724.21;;;-5.21;59.28
35758;BME280;21879;50.110;18.900;2022-12-18T23:05:18;100719.39;;;-5.17;59.07
35758;BME280;21879;50.110;18.900;2022-12-18T23:15:46;100713.70;;;-5.23;59.18
35758;BME280;21879;50.110;18.900;2022-12-18T23:26:16;100723.16;;;-5.19;59.01
35758;BME280;21879;50.110;18.900;2022-12-18T23:36:44;100718.23;;;-5.15;58.90
35758;BME280;21879;50.110;18.900;2022-12-18T23:47:14;100709.36;;;-5.14;58.25
35758;BME280;21879;50.110;18.900;2022-12-18T23:57:42;100699.53;;;-5.30;58.27
